This is the latest recevied weather packets stored in our database for station/object IN3MWE-10. If no packets are shown the sender has not sent any weather packets the latest 10 day(s).
| Time | Temp. | Humidity | Pressure | Rain* | Wind** | Luminosity | Snow |
|---|---|---|---|---|---|---|---|
| 1777729819 | 30° C | 16% | 983.2 hPa | - | - | - | - |
| 1777728919 | 32.78° C | 14% | 983.4 hPa | - | - | - | - |
| 1777728018 | 30.56° C | 18% | 983.8 hPa | - | - | - | - |
| 1777727118 | 30.56° C | 18% | 984.1 hPa | - | - | - | - |
| 1777726218 | 33.89° C | 14% | 984.2 hPa | - | - | - | - |
| 1777725318 | 32.78° C | 15% | 984.4 hPa | - | - | - | - |
| 1777724418 | 31.11° C | 16% | 984.8 hPa | - | - | - | - |
| 1777723518 | 30.56° C | 18% | 985.2 hPa | - | - | - | - |
| 1777722618 | 32.22° C | 14% | 985.3 hPa | - | - | - | - |
| 1777721717 | 31.67° C | 15% | 985.8 hPa | - | - | - | - |
| 1777720817 | 27.78° C | 20% | 986.2 hPa | - | - | - | - |
| 1777719917 | 27.22° C | 21% | 986.7 hPa | - | - | - | - |
| 1777719017 | 25° C | 22% | 987.1 hPa | - | - | - | - |
| 1777718117 | 28.89° C | 19% | 987.3 hPa | - | - | - | - |
| 1777717217 | 28.89° C | 18% | 987.7 hPa | - | - | - | - |
| 1777716317 | 27.22° C | 20% | 987.9 hPa | - | - | - | - |
| 1777715417 | 26.11° C | 22% | 988.2 hPa | - | - | - | - |
| 1777714516 | 26.11° C | 22% | 988.6 hPa | - | - | - | - |
| 1777713616 | 25° C | 23% | 988.8 hPa | - | - | - | - |
| 1777712716 | 24.44° C | 25% | 989.1 hPa | - | - | - | - |
| 1777711816 | 21.67° C | 29% | 989.4 hPa | - | - | - | - |
| 1777710916 | 21.67° C | 29% | 989.6 hPa | - | - | - | - |
| 1777710016 | 21.67° C | 29% | 989.8 hPa | - | - | - | - |
| 1777709116 | 17.78° C | 37% | 990.2 hPa | - | - | - | - |
| 1777708215 | 15° C | 45% | 990.5 hPa | - | - | - | - |
* Rain since midnight (hover to see other rain measurements)
** Current wind speed in m/s (hover to see current wind gust speed)